<?xml version="1.0" encoding="UTF-8" standalone="no" ?>
<gpx xmlns="http://www.topografix.com/GPX/1/1" xmlns:xsi="http://www.w3.org/2001/XMLSchema-instance" xsi:schemaLocation="http://www.topografix.com/GPX/1/1 http://www.topografix.com/GPX/1/1/gpx.xsd" version="1.1" creator="VisuGPX - https://www.visugpx.com">
  <metadata>
    <name>marche_20_km_cool_2023</name>
  </metadata>
  <wpt lat="47.72494" lon="3.56611">
    <ele>250</ele>
    <name><![CDATA[Ravitaillement]]></name>
  </wpt>
  <trk>
    <name><![CDATA[marche 20 km cool 2023-16275188]]></name>
    <extensions>
      <line xmlns="http://www.topografix.com/GPX/gpx_style/0/2">
        <color>0000FF</color>
        <width>4</width>
      </line>
    </extensions>
    <trkseg>
      <trkpt lat="47.72199" lon="3.58224">
        <ele>138</ele>
        <time>2023-05-12T12:23:04Z</time>
      </trkpt>
      <trkpt lat="47.72166" lon="3.58132">
        <ele>140</ele>
        <time>2023-05-12T12:24:00Z</time>
      </trkpt>
      <trkpt lat="47.72142" lon="3.58078">
        <ele>143</ele>
        <time>2023-05-12T12:24:35Z</time>
      </trkpt>
      <trkpt lat="47.72119" lon="3.58019">
        <ele>146</ele>
        <time>2023-05-12T12:25:12Z</time>
      </trkpt>
      <trkpt lat="47.72111" lon="3.57848">
        <ele>152</ele>
        <time>2023-05-12T12:26:44Z</time>
      </trkpt>
      <trkpt lat="47.72029" lon="3.57861">
        <ele>155</ele>
        <time>2023-05-12T12:27:50Z</time>
      </trkpt>
      <trkpt lat="47.71999" lon="3.57624">
        <ele>163</ele>
        <time>2023-05-12T12:30:00Z</time>
      </trkpt>
      <trkpt lat="47.71989" lon="3.57455">
        <ele>159</ele>
        <time>2023-05-12T12:31:31Z</time>
      </trkpt>
      <trkpt lat="47.71992" lon="3.57345">
        <ele>160</ele>
        <time>2023-05-12T12:32:31Z</time>
      </trkpt>
      <trkpt lat="47.72054" lon="3.57347">
        <ele>153</ele>
        <time>2023-05-12T12:33:20Z</time>
      </trkpt>
      <trkpt lat="47.72113" lon="3.57367">
        <ele>152</ele>
        <time>2023-05-12T12:34:09Z</time>
      </trkpt>
      <trkpt lat="47.72142" lon="3.5746">
        <ele>150</ele>
        <time>2023-05-12T12:35:04Z</time>
      </trkpt>
      <trkpt lat="47.72226" lon="3.57592">
        <ele>152</ele>
        <time>2023-05-12T12:36:42Z</time>
      </trkpt>
      <trkpt lat="47.72257" lon="3.57905">
        <ele>141</ele>
        <time>2023-05-12T12:39:32Z</time>
      </trkpt>
      <trkpt lat="47.72311" lon="3.57888">
        <ele>145</ele>
        <time>2023-05-12T12:40:16Z</time>
      </trkpt>
      <trkpt lat="47.72376" lon="3.57852">
        <ele>152</ele>
        <time>2023-05-12T12:41:12Z</time>
      </trkpt>
      <trkpt lat="47.72452" lon="3.57804">
        <ele>161</ele>
        <time>2023-05-12T12:42:18Z</time>
      </trkpt>
      <trkpt lat="47.72495" lon="3.57721">
        <ele>167</ele>
        <time>2023-05-12T12:43:15Z</time>
      </trkpt>
      <trkpt lat="47.7252" lon="3.57599">
        <ele>180</ele>
        <time>2023-05-12T12:44:23Z</time>
      </trkpt>
      <trkpt lat="47.72535" lon="3.5749">
        <ele>190</ele>
        <time>2023-05-12T12:45:23Z</time>
      </trkpt>
      <trkpt lat="47.72552" lon="3.57384">
        <ele>203</ele>
        <time>2023-05-12T12:46:22Z</time>
      </trkpt>
      <trkpt lat="47.72555" lon="3.57315">
        <ele>212</ele>
        <time>2023-05-12T12:46:59Z</time>
      </trkpt>
      <trkpt lat="47.72546" lon="3.57215">
        <ele>221</ele>
        <time>2023-05-12T12:47:53Z</time>
      </trkpt>
      <trkpt lat="47.72504" lon="3.57253">
        <ele>216</ele>
        <time>2023-05-12T12:48:33Z</time>
      </trkpt>
      <trkpt lat="47.72517" lon="3.57137">
        <ele>227</ele>
        <time>2023-05-12T12:49:36Z</time>
      </trkpt>
      <trkpt lat="47.72603" lon="3.57076">
        <ele>234</ele>
        <time>2023-05-12T12:50:52Z</time>
      </trkpt>
      <trkpt lat="47.72629" lon="3.57131">
        <ele>232</ele>
        <time>2023-05-12T12:51:29Z</time>
      </trkpt>
      <trkpt lat="47.72654" lon="3.5725">
        <ele>228</ele>
        <time>2023-05-12T12:52:36Z</time>
      </trkpt>
      <trkpt lat="47.72674" lon="3.57488">
        <ele>222</ele>
        <time>2023-05-12T12:54:45Z</time>
      </trkpt>
      <trkpt lat="47.72669" lon="3.57585">
        <ele>219</ele>
        <time>2023-05-12T12:55:37Z</time>
      </trkpt>
      <trkpt lat="47.72663" lon="3.57675">
        <ele>214</ele>
        <time>2023-05-12T12:56:26Z</time>
      </trkpt>
      <trkpt lat="47.7263" lon="3.57923">
        <ele>202</ele>
        <time>2023-05-12T12:58:42Z</time>
      </trkpt>
      <trkpt lat="47.72767" lon="3.57822">
        <ele>207</ele>
        <time>2023-05-12T13:00:45Z</time>
      </trkpt>
      <trkpt lat="47.72801" lon="3.57807">
        <ele>209</ele>
        <time>2023-05-12T13:01:13Z</time>
      </trkpt>
      <trkpt lat="47.72811" lon="3.57832">
        <ele>207</ele>
        <time>2023-05-12T13:01:29Z</time>
      </trkpt>
      <trkpt lat="47.72818" lon="3.57863">
        <ele>202</ele>
        <time>2023-05-12T13:01:46Z</time>
      </trkpt>
      <trkpt lat="47.72853" lon="3.57892">
        <ele>198</ele>
        <time>2023-05-12T13:02:18Z</time>
      </trkpt>
      <trkpt lat="47.72871" lon="3.57898">
        <ele>199</ele>
        <time>2023-05-12T13:02:33Z</time>
      </trkpt>
      <trkpt lat="47.72883" lon="3.57907">
        <ele>198</ele>
        <time>2023-05-12T13:02:44Z</time>
      </trkpt>
      <trkpt lat="47.72901" lon="3.5791">
        <ele>199</ele>
        <time>2023-05-12T13:02:58Z</time>
      </trkpt>
      <trkpt lat="47.72925" lon="3.57913">
        <ele>201</ele>
        <time>2023-05-12T13:03:18Z</time>
      </trkpt>
      <trkpt lat="47.72933" lon="3.57887">
        <ele>204</ele>
        <time>2023-05-12T13:03:33Z</time>
      </trkpt>
      <trkpt lat="47.72957" lon="3.57913">
        <ele>204</ele>
        <time>2023-05-12T13:03:57Z</time>
      </trkpt>
      <trkpt lat="47.73001" lon="3.57954">
        <ele>204</ele>
        <time>2023-05-12T13:04:39Z</time>
      </trkpt>
      <trkpt lat="47.7302" lon="3.57992">
        <ele>201</ele>
        <time>2023-05-12T13:05:04Z</time>
      </trkpt>
      <trkpt lat="47.73061" lon="3.58037">
        <ele>200</ele>
        <time>2023-05-12T13:05:45Z</time>
      </trkpt>
      <trkpt lat="47.73092" lon="3.58051">
        <ele>201</ele>
        <time>2023-05-12T13:06:11Z</time>
      </trkpt>
      <trkpt lat="47.73142" lon="3.58135">
        <ele>195</ele>
        <time>2023-05-12T13:07:11Z</time>
      </trkpt>
      <trkpt lat="47.73179" lon="3.58132">
        <ele>195</ele>
        <time>2023-05-12T13:07:41Z</time>
      </trkpt>
      <trkpt lat="47.73217" lon="3.582">
        <ele>184</ele>
        <time>2023-05-12T13:08:28Z</time>
      </trkpt>
      <trkpt lat="47.73233" lon="3.58262">
        <ele>177</ele>
        <time>2023-05-12T13:09:04Z</time>
      </trkpt>
      <trkpt lat="47.73234" lon="3.58307">
        <ele>173</ele>
        <time>2023-05-12T13:09:28Z</time>
      </trkpt>
      <trkpt lat="47.73192" lon="3.58404">
        <ele>161</ele>
        <time>2023-05-12T13:10:31Z</time>
      </trkpt>
      <trkpt lat="47.73241" lon="3.58562">
        <ele>149</ele>
        <time>2023-05-12T13:12:04Z</time>
      </trkpt>
      <trkpt lat="47.73321" lon="3.58482">
        <ele>148</ele>
        <time>2023-05-12T13:13:21Z</time>
      </trkpt>
      <trkpt lat="47.73327" lon="3.58333">
        <ele>157</ele>
        <time>2023-05-12T13:14:42Z</time>
      </trkpt>
      <trkpt lat="47.73369" lon="3.58136">
        <ele>162</ele>
        <time>2023-05-12T13:16:33Z</time>
      </trkpt>
      <trkpt lat="47.73422" lon="3.57984">
        <ele>165</ele>
        <time>2023-05-12T13:18:05Z</time>
      </trkpt>
      <trkpt lat="47.7344" lon="3.57838">
        <ele>166</ele>
        <time>2023-05-12T13:19:25Z</time>
      </trkpt>
      <trkpt lat="47.73441" lon="3.5768">
        <ele>170</ele>
        <time>2023-05-12T13:20:50Z</time>
      </trkpt>
      <trkpt lat="47.73419" lon="3.57539">
        <ele>170</ele>
        <time>2023-05-12T13:22:08Z</time>
      </trkpt>
      <trkpt lat="47.7341" lon="3.57503">
        <ele>171</ele>
        <time>2023-05-12T13:22:29Z</time>
      </trkpt>
      <trkpt lat="47.73431" lon="3.57451">
        <ele>168</ele>
        <time>2023-05-12T13:23:02Z</time>
      </trkpt>
      <trkpt lat="47.73472" lon="3.57443">
        <ele>169</ele>
        <time>2023-05-12T13:23:35Z</time>
      </trkpt>
      <trkpt lat="47.73457" lon="3.57398">
        <ele>171</ele>
        <time>2023-05-12T13:24:02Z</time>
      </trkpt>
      <trkpt lat="47.73494" lon="3.57384">
        <ele>175</ele>
        <time>2023-05-12T13:24:32Z</time>
      </trkpt>
      <trkpt lat="47.73482" lon="3.57314">
        <ele>180</ele>
        <time>2023-05-12T13:25:11Z</time>
      </trkpt>
      <trkpt lat="47.7345" lon="3.57194">
        <ele>187</ele>
        <time>2023-05-12T13:26:21Z</time>
      </trkpt>
      <trkpt lat="47.73447" lon="3.57152">
        <ele>191</ele>
        <time>2023-05-12T13:26:44Z</time>
      </trkpt>
      <trkpt lat="47.73405" lon="3.57171">
        <ele>186</ele>
        <time>2023-05-12T13:27:19Z</time>
      </trkpt>
      <trkpt lat="47.73358" lon="3.57196">
        <ele>184</ele>
        <time>2023-05-12T13:27:59Z</time>
      </trkpt>
      <trkpt lat="47.73305" lon="3.57138">
        <ele>194</ele>
        <time>2023-05-12T13:28:51Z</time>
      </trkpt>
      <trkpt lat="47.73181" lon="3.57067">
        <ele>201</ele>
        <time>2023-05-12T13:30:38Z</time>
      </trkpt>
      <trkpt lat="47.73145" lon="3.57103">
        <ele>201</ele>
        <time>2023-05-12T13:31:13Z</time>
      </trkpt>
      <trkpt lat="47.73181" lon="3.57217">
        <ele>199</ele>
        <time>2023-05-12T13:32:20Z</time>
      </trkpt>
      <trkpt lat="47.73226" lon="3.5734">
        <ele>197</ele>
        <time>2023-05-12T13:33:36Z</time>
      </trkpt>
      <trkpt lat="47.7322" lon="3.57376">
        <ele>200</ele>
        <time>2023-05-12T13:33:56Z</time>
      </trkpt>
      <trkpt lat="47.73274" lon="3.57514">
        <ele>197</ele>
        <time>2023-05-12T13:35:22Z</time>
      </trkpt>
      <trkpt lat="47.73257" lon="3.57574">
        <ele>201</ele>
        <time>2023-05-12T13:35:57Z</time>
      </trkpt>
      <trkpt lat="47.73284" lon="3.57625">
        <ele>197</ele>
        <time>2023-05-12T13:36:32Z</time>
      </trkpt>
      <trkpt lat="47.73223" lon="3.57713">
        <ele>206</ele>
        <time>2023-05-12T13:37:40Z</time>
      </trkpt>
      <trkpt lat="47.73241" lon="3.57785">
        <ele>204</ele>
        <time>2023-05-12T13:38:21Z</time>
      </trkpt>
      <trkpt lat="47.73248" lon="3.57944">
        <ele>200</ele>
        <time>2023-05-12T13:39:47Z</time>
      </trkpt>
      <trkpt lat="47.7312" lon="3.58018">
        <ele>204</ele>
        <time>2023-05-12T13:41:37Z</time>
      </trkpt>
      <trkpt lat="47.73029" lon="3.57947">
        <ele>206</ele>
        <time>2023-05-12T13:42:59Z</time>
      </trkpt>
      <trkpt lat="47.72973" lon="3.57867">
        <ele>209</ele>
        <time>2023-05-12T13:44:01Z</time>
      </trkpt>
      <trkpt lat="47.72916" lon="3.57723">
        <ele>217</ele>
        <time>2023-05-12T13:45:31Z</time>
      </trkpt>
      <trkpt lat="47.7287" lon="3.57633">
        <ele>222</ele>
        <time>2023-05-12T13:46:32Z</time>
      </trkpt>
      <trkpt lat="47.72812" lon="3.57523">
        <ele>226</ele>
        <time>2023-05-12T13:47:48Z</time>
      </trkpt>
      <trkpt lat="47.7278" lon="3.57408">
        <ele>229</ele>
        <time>2023-05-12T13:48:55Z</time>
      </trkpt>
      <trkpt lat="47.72741" lon="3.57273">
        <ele>233</ele>
        <time>2023-05-12T13:50:14Z</time>
      </trkpt>
      <trkpt lat="47.72741" lon="3.57205">
        <ele>235</ele>
        <time>2023-05-12T13:50:50Z</time>
      </trkpt>
      <trkpt lat="47.72705" lon="3.57043">
        <ele>238</ele>
        <time>2023-05-12T13:52:22Z</time>
      </trkpt>
      <trkpt lat="47.72643" lon="3.56935">
        <ele>240</ele>
        <time>2023-05-12T13:53:39Z</time>
      </trkpt>
      <trkpt lat="47.72529" lon="3.56755">
        <ele>244</ele>
        <time>2023-05-12T13:55:52Z</time>
      </trkpt>
      <trkpt lat="47.72474" lon="3.56655">
        <ele>244</ele>
        <time>2023-05-12T13:57:01Z</time>
      </trkpt>
      <trkpt lat="47.72494" lon="3.56611">
        <ele>246</ele>
        <time>2023-05-12T13:57:30Z</time>
      </trkpt>
      <trkpt lat="47.72435" lon="3.56601">
        <ele>243</ele>
        <time>2023-05-12T13:58:18Z</time>
      </trkpt>
      <trkpt lat="47.72417" lon="3.564">
        <ele>247</ele>
        <time>2023-05-12T14:00:07Z</time>
      </trkpt>
      <trkpt lat="47.72369" lon="3.56237">
        <ele>248</ele>
        <time>2023-05-12T14:01:43Z</time>
      </trkpt>
      <trkpt lat="47.72328" lon="3.55989">
        <ele>248</ele>
        <time>2023-05-12T14:04:00Z</time>
      </trkpt>
      <trkpt lat="47.72063" lon="3.55941">
        <ele>244</ele>
        <time>2023-05-12T14:07:34Z</time>
      </trkpt>
      <trkpt lat="47.71941" lon="3.55921">
        <ele>247</ele>
        <time>2023-05-12T14:09:12Z</time>
      </trkpt>
      <trkpt lat="47.71944" lon="3.56024">
        <ele>242</ele>
        <time>2023-05-12T14:10:08Z</time>
      </trkpt>
      <trkpt lat="47.71961" lon="3.56099">
        <ele>236</ele>
        <time>2023-05-12T14:10:50Z</time>
      </trkpt>
      <trkpt lat="47.72001" lon="3.56197">
        <ele>218</ele>
        <time>2023-05-12T14:11:52Z</time>
      </trkpt>
      <trkpt lat="47.71989" lon="3.56228">
        <ele>216</ele>
        <time>2023-05-12T14:12:11Z</time>
      </trkpt>
      <trkpt lat="47.71984" lon="3.5627">
        <ele>210</ele>
        <time>2023-05-12T14:12:34Z</time>
      </trkpt>
      <trkpt lat="47.71983" lon="3.56301">
        <ele>206</ele>
        <time>2023-05-12T14:12:51Z</time>
      </trkpt>
      <trkpt lat="47.71959" lon="3.56316">
        <ele>205</ele>
        <time>2023-05-12T14:13:12Z</time>
      </trkpt>
      <trkpt lat="47.71868" lon="3.56303">
        <ele>212</ele>
        <time>2023-05-12T14:14:25Z</time>
      </trkpt>
      <trkpt lat="47.71821" lon="3.56315">
        <ele>211</ele>
        <time>2023-05-12T14:15:03Z</time>
      </trkpt>
      <trkpt lat="47.71796" lon="3.56345">
        <ele>208</ele>
        <time>2023-05-12T14:15:29Z</time>
      </trkpt>
      <trkpt lat="47.71783" lon="3.56363">
        <ele>208</ele>
        <time>2023-05-12T14:15:43Z</time>
      </trkpt>
      <trkpt lat="47.71698" lon="3.56371">
        <ele>216</ele>
        <time>2023-05-12T14:16:51Z</time>
      </trkpt>
      <trkpt lat="47.71608" lon="3.56371">
        <ele>225</ele>
        <time>2023-05-12T14:18:03Z</time>
      </trkpt>
      <trkpt lat="47.71549" lon="3.56375">
        <ele>228</ele>
        <time>2023-05-12T14:18:51Z</time>
      </trkpt>
      <trkpt lat="47.71512" lon="3.56376">
        <ele>230</ele>
        <time>2023-05-12T14:19:20Z</time>
      </trkpt>
      <trkpt lat="47.71525" lon="3.5641">
        <ele>227</ele>
        <time>2023-05-12T14:19:41Z</time>
      </trkpt>
      <trkpt lat="47.71543" lon="3.5642">
        <ele>226</ele>
        <time>2023-05-12T14:19:57Z</time>
      </trkpt>
      <trkpt lat="47.71658" lon="3.56394">
        <ele>219</ele>
        <time>2023-05-12T14:21:30Z</time>
      </trkpt>
      <trkpt lat="47.71775" lon="3.56417">
        <ele>208</ele>
        <time>2023-05-12T14:23:04Z</time>
      </trkpt>
      <trkpt lat="47.71831" lon="3.56445">
        <ele>203</ele>
        <time>2023-05-12T14:23:52Z</time>
      </trkpt>
      <trkpt lat="47.71871" lon="3.56523">
        <ele>206</ele>
        <time>2023-05-12T14:24:45Z</time>
      </trkpt>
      <trkpt lat="47.71838" lon="3.56492">
        <ele>207</ele>
        <time>2023-05-12T14:25:16Z</time>
      </trkpt>
      <trkpt lat="47.71806" lon="3.56466">
        <ele>209</ele>
        <time>2023-05-12T14:25:45Z</time>
      </trkpt>
      <trkpt lat="47.71681" lon="3.56441">
        <ele>219</ele>
        <time>2023-05-12T14:27:26Z</time>
      </trkpt>
      <trkpt lat="47.71621" lon="3.5645">
        <ele>224</ele>
        <time>2023-05-12T14:28:14Z</time>
      </trkpt>
      <trkpt lat="47.71634" lon="3.56488">
        <ele>227</ele>
        <time>2023-05-12T14:28:37Z</time>
      </trkpt>
      <trkpt lat="47.7161" lon="3.56522">
        <ele>230</ele>
        <time>2023-05-12T14:29:04Z</time>
      </trkpt>
      <trkpt lat="47.71618" lon="3.56548">
        <ele>232</ele>
        <time>2023-05-12T14:29:19Z</time>
      </trkpt>
      <trkpt lat="47.71607" lon="3.56566">
        <ele>233</ele>
        <time>2023-05-12T14:29:32Z</time>
      </trkpt>
      <trkpt lat="47.71501" lon="3.56583">
        <ele>237</ele>
        <time>2023-05-12T14:30:58Z</time>
      </trkpt>
      <trkpt lat="47.71382" lon="3.56613">
        <ele>240</ele>
        <time>2023-05-12T14:32:34Z</time>
      </trkpt>
      <trkpt lat="47.71338" lon="3.56611">
        <ele>242</ele>
        <time>2023-05-12T14:33:10Z</time>
      </trkpt>
      <trkpt lat="47.71296" lon="3.56717">
        <ele>245</ele>
        <time>2023-05-12T14:34:16Z</time>
      </trkpt>
      <trkpt lat="47.71248" lon="3.56808">
        <ele>250</ele>
        <time>2023-05-12T14:35:18Z</time>
      </trkpt>
      <trkpt lat="47.71215" lon="3.56915">
        <ele>251</ele>
        <time>2023-05-12T14:36:22Z</time>
      </trkpt>
      <trkpt lat="47.71199" lon="3.57044">
        <ele>252</ele>
        <time>2023-05-12T14:37:32Z</time>
      </trkpt>
      <trkpt lat="47.712" lon="3.57202">
        <ele>251</ele>
        <time>2023-05-12T14:38:57Z</time>
      </trkpt>
      <trkpt lat="47.71248" lon="3.57453">
        <ele>245</ele>
        <time>2023-05-12T14:41:18Z</time>
      </trkpt>
      <trkpt lat="47.71291" lon="3.57601">
        <ele>240</ele>
        <time>2023-05-12T14:42:45Z</time>
      </trkpt>
      <trkpt lat="47.71245" lon="3.57725">
        <ele>234</ele>
        <time>2023-05-12T14:44:01Z</time>
      </trkpt>
      <trkpt lat="47.71198" lon="3.57697">
        <ele>233</ele>
        <time>2023-05-12T14:44:42Z</time>
      </trkpt>
      <trkpt lat="47.71139" lon="3.57632">
        <ele>233</ele>
        <time>2023-05-12T14:45:40Z</time>
      </trkpt>
      <trkpt lat="47.7107" lon="3.5751">
        <ele>237</ele>
        <time>2023-05-12T14:47:06Z</time>
      </trkpt>
      <trkpt lat="47.71008" lon="3.57444">
        <ele>238</ele>
        <time>2023-05-12T14:48:07Z</time>
      </trkpt>
      <trkpt lat="47.70944" lon="3.57345">
        <ele>241</ele>
        <time>2023-05-12T14:49:21Z</time>
      </trkpt>
      <trkpt lat="47.70893" lon="3.57316">
        <ele>242</ele>
        <time>2023-05-12T14:50:05Z</time>
      </trkpt>
      <trkpt lat="47.70829" lon="3.5725">
        <ele>248</ele>
        <time>2023-05-12T14:51:07Z</time>
      </trkpt>
      <trkpt lat="47.70783" lon="3.57312">
        <ele>246</ele>
        <time>2023-05-12T14:51:57Z</time>
      </trkpt>
      <trkpt lat="47.70708" lon="3.57415">
        <ele>242</ele>
        <time>2023-05-12T14:53:19Z</time>
      </trkpt>
      <trkpt lat="47.70673" lon="3.57481">
        <ele>239</ele>
        <time>2023-05-12T14:54:04Z</time>
      </trkpt>
      <trkpt lat="47.70669" lon="3.57621">
        <ele>235</ele>
        <time>2023-05-12T14:55:20Z</time>
      </trkpt>
      <trkpt lat="47.70715" lon="3.57821">
        <ele>225</ele>
        <time>2023-05-12T14:57:14Z</time>
      </trkpt>
      <trkpt lat="47.70766" lon="3.58039">
        <ele>215</ele>
        <time>2023-05-12T14:59:18Z</time>
      </trkpt>
      <trkpt lat="47.70839" lon="3.58146">
        <ele>208</ele>
        <time>2023-05-12T15:00:40Z</time>
      </trkpt>
      <trkpt lat="47.70879" lon="3.58292">
        <ele>202</ele>
        <time>2023-05-12T15:02:05Z</time>
      </trkpt>
      <trkpt lat="47.70907" lon="3.58428">
        <ele>197</ele>
        <time>2023-05-12T15:03:22Z</time>
      </trkpt>
      <trkpt lat="47.70951" lon="3.58632">
        <ele>190</ele>
        <time>2023-05-12T15:05:17Z</time>
      </trkpt>
      <trkpt lat="47.71018" lon="3.58582">
        <ele>187</ele>
        <time>2023-05-12T15:06:17Z</time>
      </trkpt>
      <trkpt lat="47.71047" lon="3.58493">
        <ele>183</ele>
        <time>2023-05-12T15:07:10Z</time>
      </trkpt>
      <trkpt lat="47.71053" lon="3.58395">
        <ele>181</ele>
        <time>2023-05-12T15:08:03Z</time>
      </trkpt>
      <trkpt lat="47.71008" lon="3.58149">
        <ele>185</ele>
        <time>2023-05-12T15:10:21Z</time>
      </trkpt>
      <trkpt lat="47.71011" lon="3.58053">
        <ele>181</ele>
        <time>2023-05-12T15:11:12Z</time>
      </trkpt>
      <trkpt lat="47.71033" lon="3.57855">
        <ele>186</ele>
        <time>2023-05-12T15:13:01Z</time>
      </trkpt>
      <trkpt lat="47.71007" lon="3.57764">
        <ele>191</ele>
        <time>2023-05-12T15:13:54Z</time>
      </trkpt>
      <trkpt lat="47.7097" lon="3.57664">
        <ele>203</ele>
        <time>2023-05-12T15:14:55Z</time>
      </trkpt>
      <trkpt lat="47.7094" lon="3.57597">
        <ele>210</ele>
        <time>2023-05-12T15:15:39Z</time>
      </trkpt>
      <trkpt lat="47.70907" lon="3.57511">
        <ele>216</ele>
        <time>2023-05-12T15:16:32Z</time>
      </trkpt>
      <trkpt lat="47.70904" lon="3.57551">
        <ele>213</ele>
        <time>2023-05-12T15:16:54Z</time>
      </trkpt>
      <trkpt lat="47.70876" lon="3.57542">
        <ele>219</ele>
        <time>2023-05-12T15:17:17Z</time>
      </trkpt>
      <trkpt lat="47.70847" lon="3.57585">
        <ele>222</ele>
        <time>2023-05-12T15:17:49Z</time>
      </trkpt>
      <trkpt lat="47.70797" lon="3.57472">
        <ele>233</ele>
        <time>2023-05-12T15:19:02Z</time>
      </trkpt>
      <trkpt lat="47.70749" lon="3.57534">
        <ele>235</ele>
        <time>2023-05-12T15:19:53Z</time>
      </trkpt>
      <trkpt lat="47.70775" lon="3.57388">
        <ele>241</ele>
        <time>2023-05-12T15:21:15Z</time>
      </trkpt>
      <trkpt lat="47.70851" lon="3.57329">
        <ele>241</ele>
        <time>2023-05-12T15:22:23Z</time>
      </trkpt>
      <trkpt lat="47.70952" lon="3.57438">
        <ele>230</ele>
        <time>2023-05-12T15:24:03Z</time>
      </trkpt>
      <trkpt lat="47.71053" lon="3.57551">
        <ele>231</ele>
        <time>2023-05-12T15:25:44Z</time>
      </trkpt>
      <trkpt lat="47.71108" lon="3.57656">
        <ele>227</ele>
        <time>2023-05-12T15:26:56Z</time>
      </trkpt>
      <trkpt lat="47.7116" lon="3.5774">
        <ele>225</ele>
        <time>2023-05-12T15:27:58Z</time>
      </trkpt>
      <trkpt lat="47.71216" lon="3.57762">
        <ele>230</ele>
        <time>2023-05-12T15:28:44Z</time>
      </trkpt>
      <trkpt lat="47.71261" lon="3.57768">
        <ele>233</ele>
        <time>2023-05-12T15:29:20Z</time>
      </trkpt>
      <trkpt lat="47.71412" lon="3.57757">
        <ele>234</ele>
        <time>2023-05-12T15:31:21Z</time>
      </trkpt>
      <trkpt lat="47.71473" lon="3.57888">
        <ele>227</ele>
        <time>2023-05-12T15:32:47Z</time>
      </trkpt>
      <trkpt lat="47.7158" lon="3.57857">
        <ele>213</ele>
        <time>2023-05-12T15:34:14Z</time>
      </trkpt>
      <trkpt lat="47.71626" lon="3.58043">
        <ele>205</ele>
        <time>2023-05-12T15:36:01Z</time>
      </trkpt>
      <trkpt lat="47.71671" lon="3.58055">
        <ele>196</ele>
        <time>2023-05-12T15:36:38Z</time>
      </trkpt>
      <trkpt lat="47.71727" lon="3.58264">
        <ele>186</ele>
        <time>2023-05-12T15:38:39Z</time>
      </trkpt>
      <trkpt lat="47.71705" lon="3.58335">
        <ele>191</ele>
        <time>2023-05-12T15:39:21Z</time>
      </trkpt>
      <trkpt lat="47.71732" lon="3.58471">
        <ele>187</ele>
        <time>2023-05-12T15:40:37Z</time>
      </trkpt>
      <trkpt lat="47.71752" lon="3.58572">
        <ele>185</ele>
        <time>2023-05-12T15:41:34Z</time>
      </trkpt>
      <trkpt lat="47.71821" lon="3.58706">
        <ele>177</ele>
        <time>2023-05-12T15:43:05Z</time>
      </trkpt>
      <trkpt lat="47.7178" lon="3.58786">
        <ele>181</ele>
        <time>2023-05-12T15:43:59Z</time>
      </trkpt>
      <trkpt lat="47.7173" lon="3.58822">
        <ele>182</ele>
        <time>2023-05-12T15:44:44Z</time>
      </trkpt>
      <trkpt lat="47.71783" lon="3.58992">
        <ele>178</ele>
        <time>2023-05-12T15:46:25Z</time>
      </trkpt>
      <trkpt lat="47.71793" lon="3.59056">
        <ele>177</ele>
        <time>2023-05-12T15:47:00Z</time>
      </trkpt>
      <trkpt lat="47.71833" lon="3.59277">
        <ele>169</ele>
        <time>2023-05-12T15:49:03Z</time>
      </trkpt>
      <trkpt lat="47.72066" lon="3.59126">
        <ele>158</ele>
        <time>2023-05-12T15:52:27Z</time>
      </trkpt>
      <trkpt lat="47.71974" lon="3.58795">
        <ele>159</ele>
        <time>2023-05-12T15:55:40Z</time>
      </trkpt>
      <trkpt lat="47.7201" lon="3.58771">
        <ele>154</ele>
        <time>2023-05-12T15:56:11Z</time>
      </trkpt>
      <trkpt lat="47.71987" lon="3.5862">
        <ele>153</ele>
        <time>2023-05-12T15:57:35Z</time>
      </trkpt>
      <trkpt lat="47.72021" lon="3.58514">
        <ele>147</ele>
        <time>2023-05-12T15:58:38Z</time>
      </trkpt>
      <trkpt lat="47.71983" lon="3.5835">
        <ele>152</ele>
        <time>2023-05-12T16:00:11Z</time>
      </trkpt>
      <trkpt lat="47.72" lon="3.58295">
        <ele>151</ele>
        <time>2023-05-12T16:00:44Z</time>
      </trkpt>
      <trkpt lat="47.7197" lon="3.58196">
        <ele>153</ele>
        <time>2023-05-12T16:01:42Z</time>
      </trkpt>
      <trkpt lat="47.7208" lon="3.58041">
        <ele>147</ele>
        <time>2023-05-12T16:03:44Z</time>
      </trkpt>
      <trkpt lat="47.72145" lon="3.58067">
        <ele>143</ele>
        <time>2023-05-12T16:04:38Z</time>
      </trkpt>
      <trkpt lat="47.72237" lon="3.583">
        <ele>137</ele>
        <time>2023-05-12T16:07:03Z</time>
      </trkpt>
    </trkseg>
  </trk>
</gpx>